sensor_id;sensor_type;location;lat;lon;timestamp;pressure;altitude;pressure_sealevel;temperature;humidity
12987;BME280;58897;51.960;5.582;2023-05-02T00:00:46;101670.13;;;12.36;100.00
12987;BME280;58897;51.960;5.582;2023-05-02T00:03:13;101670.00;;;12.38;100.00
12987;BME280;58897;51.960;5.582;2023-05-02T00:05:40;101671.59;;;12.31;100.00
12987;BME280;58897;51.960;5.582;2023-05-02T00:08:06;101670.13;;;12.19;100.00
12987;BME280;58897;51.960;5.582;2023-05-02T00:10:33;101669.06;;;12.12;100.00
12987;BME280;58897;51.960;5.582;2023-05-02T00:13:00;101671.50;;;11.88;100.00
12987;BME280;58897;51.960;5.582;2023-05-02T00:15:26;101675.75;;;11.90;100.00
12987;BME280;58897;51.960;5.582;2023-05-02T00:17:53;101681.50;;;12.05;100.00
12987;BME280;58897;51.960;5.582;2023-05-02T00:20:19;101673.75;;;12.10;100.00
12987;BME280;58897;51.960;5.582;2023-05-02T00:22:46;101675.00;;;12.15;100.00
12987;BME280;58897;51.960;5.582;2023-05-02T00:25:13;101669.44;;;12.17;100.00
12987;BME280;58897;51.960;5.582;2023-05-02T00:27:42;101673.53;;;12.03;100.00
12987;BME280;58897;51.960;5.582;2023-05-02T00:30:12;101669.88;;;12.12;100.00
12987;BME280;58897;51.960;5.582;2023-05-02T00:32:39;101675.94;;;12.06;100.00
12987;BME280;58897;51.960;5.582;2023-05-02T00:35:06;101675.25;;;12.04;100.00
12987;BME280;58897;51.960;5.582;2023-05-02T00:37:33;101680.97;;;12.19;100.00
12987;BME280;58897;51.960;5.582;2023-05-02T00:40:00;101678.47;;;12.08;100.00
12987;BME280;58897;51.960;5.582;2023-05-02T00:42:27;101684.19;;;12.05;100.00
12987;BME280;58897;51.960;5.582;2023-05-02T00:44:57;101680.41;;;12.15;100.00
12987;BME280;58897;51.960;5.582;2023-05-02T00:47:23;101673.31;;;12.14;100.00
12987;BME280;58897;51.960;5.582;2023-05-02T00:49:50;101677.09;;;12.21;100.00
12987;BME280;58897;51.960;5.582;2023-05-02T00:52:17;101667.50;;;12.09;100.00
12987;BME280;58897;51.960;5.582;2023-05-02T00:54:44;101669.53;;;12.25;100.00
12987;BME280;58897;51.960;5.582;2023-05-02T00:57:10;101671.22;;;12.26;100.00
12987;BME280;58897;51.960;5.582;2023-05-02T00:59:37;101673.22;;;12.06;100.00
12987;BME280;58897;51.960;5.582;2023-05-02T01:02:14;101672.19;;;12.07;100.00
12987;BME280;58897;51.960;5.582;2023-05-02T01:05:10;101678.56;;;12.16;100.00
12987;BME280;58897;51.960;5.582;2023-05-02T01:10:51;101685.41;;;12.20;100.00
12987;BME280;58897;51.960;5.582;2023-05-02T01:13:24;101684.34;;;12.03;100.00
12987;BME280;58897;51.960;5.582;2023-05-02T01:15:52;101682.66;;;12.02;100.00
12987;BME280;58897;51.960;5.582;2023-05-02T01:18:28;101676.03;;;12.14;100.00
12987;BME280;58897;51.960;5.582;2023-05-02T01:21:09;101688.63;;;12.06;100.00
12987;BME280;58897;51.960;5.582;2023-05-02T01:26:50;101687.84;;;12.13;100.00
12987;BME280;58897;51.960;5.582;2023-05-02T01:29:19;101692.66;;;12.19;100.00
12987;BME280;58897;51.960;5.582;2023-05-02T01:31:49;101700.09;;;12.17;100.00
12987;BME280;58897;51.960;5.582;2023-05-02T01:34:17;101703.03;;;12.24;100.00
12987;BME280;58897;51.960;5.582;2023-05-02T01:36:47;101696.66;;;12.15;100.00
12987;BME280;58897;51.960;5.582;2023-05-02T01:39:19;101700.41;;;12.14;100.00
12987;BME280;58897;51.960;5.582;2023-05-02T01:41:49;101696.22;;;12.20;100.00
12987;BME280;58897;51.960;5.582;2023-05-02T01:44:21;101704.66;;;12.17;100.00
12987;BME280;58897;51.960;5.582;2023-05-02T01:46:50;101705.97;;;12.13;100.00
12987;BME280;58897;51.960;5.582;2023-05-02T01:49:18;101701.75;;;12.01;100.00
12987;BME280;58897;51.960;5.582;2023-05-02T01:51:48;101705.09;;;12.12;100.00
12987;BME280;58897;51.960;5.582;2023-05-02T01:54:16;101708.16;;;12.00;100.00
12987;BME280;58897;51.960;5.582;2023-05-02T01:56:44;101723.78;;;11.88;100.00
12987;BME280;58897;51.960;5.582;2023-05-02T01:59:14;101731.44;;;11.93;100.00
12987;BME280;58897;51.960;5.582;2023-05-02T02:01:42;101727.34;;;11.89;100.00
12987;BME280;58897;51.960;5.582;2023-05-02T02:04:12;101727.69;;;12.03;100.00
12987;BME280;58897;51.960;5.582;2023-05-02T02:06:44;101734.50;;;12.07;100.00
12987;BME280;58897;51.960;5.582;2023-05-02T02:09:12;101733.81;;;12.05;100.00
12987;BME280;58897;51.960;5.582;2023-05-02T02:11:46;101745.78;;;11.75;100.00
12987;BME280;58897;51.960;5.582;2023-05-02T02:14:20;101749.25;;;11.95;100.00
12987;BME280;58897;51.960;5.582;2023-05-02T02:16:47;101742.56;;;11.90;100.00
12987;BME280;58897;51.960;5.582;2023-05-02T02:19:16;101750.66;;;11.72;100.00
12987;BME280;58897;51.960;5.582;2023-05-02T02:21:45;101746.78;;;11.74;100.00
12987;BME280;58897;51.960;5.582;2023-05-02T02:24:15;101749.66;;;11.73;100.00
12987;BME280;58897;51.960;5.582;2023-05-02T02:26:43;101762.72;;;11.68;100.00
12987;BME280;58897;51.960;5.582;2023-05-02T02:29:10;101746.44;;;11.87;100.00
12987;BME280;58897;51.960;5.582;2023-05-02T02:31:37;101753.78;;;11.67;100.00
12987;BME280;58897;51.960;5.582;2023-05-02T02:34:05;101763.84;;;11.85;100.00
12987;BME280;58897;51.960;5.582;2023-05-02T02:39:22;101762.75;;;11.58;100.00
12987;BME280;58897;51.960;5.582;2023-05-02T02:42:07;101760.16;;;11.66;100.00
12987;BME280;58897;51.960;5.582;2023-05-02T02:44:58;101769.19;;;11.57;100.00
12987;BME280;58897;51.960;5.582;2023-05-02T02:47:31;101777.41;;;11.65;100.00
12987;BME280;58897;51.960;5.582;2023-05-02T02:50:37;101781.41;;;11.71;100.00
12987;BME280;58897;51.960;5.582;2023-05-02T02:53:04;101781.56;;;11.69;100.00
12987;BME280;58897;51.960;5.582;2023-05-02T02:55:54;101786.41;;;11.56;100.00
12987;BME280;58897;51.960;5.582;2023-05-02T02:58:35;101782.69;;;11.67;100.00
12987;BME280;58897;51.960;5.582;2023-05-02T03:01:08;101794.38;;;11.67;100.00
12987;BME280;58897;51.960;5.582;2023-05-02T03:03:38;101790.28;;;11.54;100.00
12987;BME280;58897;51.960;5.582;2023-05-02T03:06:06;101792.00;;;11.45;100.00
12987;BME280;58897;51.960;5.582;2023-05-02T03:08:39;101795.81;;;11.52;100.00
12987;BME280;58897;51.960;5.582;2023-05-02T03:11:06;101790.41;;;11.62;100.00
12987;BME280;58897;51.960;5.582;2023-05-02T03:13:34;101798.09;;;11.47;100.00
12987;BME280;58897;51.960;5.582;2023-05-02T03:16:28;101800.28;;;11.44;100.00
12987;BME280;58897;51.960;5.582;2023-05-02T03:18:56;101805.69;;;11.34;100.00
12987;BME280;58897;51.960;5.582;2023-05-02T03:21:23;101806.56;;;11.25;100.00
12987;BME280;58897;51.960;5.582;2023-05-02T03:23:49;101808.56;;;11.23;100.00
12987;BME280;58897;51.960;5.582;2023-05-02T03:26:16;101810.00;;;11.18;100.00
12987;BME280;58897;51.960;5.582;2023-05-02T03:28:42;101817.53;;;11.14;100.00
12987;BME280;58897;51.960;5.582;2023-05-02T03:31:12;101814.56;;;11.07;100.00
12987;BME280;58897;51.960;5.582;2023-05-02T03:33:40;101819.69;;;11.10;100.00
12987;BME280;58897;51.960;5.582;2023-05-02T03:36:06;101836.03;;;11.28;100.00
12987;BME280;58897;51.960;5.582;2023-05-02T03:38:33;101826.66;;;11.13;100.00
12987;BME280;58897;51.960;5.582;2023-05-02T03:40:59;101829.63;;;11.20;100.00
12987;BME280;58897;51.960;5.582;2023-05-02T03:43:26;101836.63;;;11.12;100.00
12987;BME280;58897;51.960;5.582;2023-05-02T03:45:53;101836.63;;;11.12;100.00
12987;BME280;58897;51.960;5.582;2023-05-02T03:48:19;101843.88;;;11.12;100.00
12987;BME280;58897;51.960;5.582;2023-05-02T03:50:46;101842.44;;;11.18;100.00
12987;BME280;58897;51.960;5.582;2023-05-02T03:53:12;101838.59;;;10.82;100.00
12987;BME280;58897;51.960;5.582;2023-05-02T03:55:42;101846.69;;;11.01;100.00
12987;BME280;58897;51.960;5.582;2023-05-02T03:58:11;101839.16;;;11.14;100.00
12987;BME280;58897;51.960;5.582;2023-05-02T04:00:38;101849.69;;;11.17;100.00
12987;BME280;58897;51.960;5.582;2023-05-02T04:03:05;101851.41;;;11.18;100.00
12987;BME280;58897;51.960;5.582;2023-05-02T04:05:32;101853.69;;;11.23;100.00
12987;BME280;58897;51.960;5.582;2023-05-02T04:08:00;101860.22;;;11.20;100.00
12987;BME280;58897;51.960;5.582;2023-05-02T04:10:27;101861.78;;;11.03;100.00
12987;BME280;58897;51.960;5.582;2023-05-02T04:12:53;101861.78;;;10.94;100.00
12987;BME280;58897;51.960;5.582;2023-05-02T04:15:19;101864.06;;;10.98;100.00
12987;BME280;58897;51.960;5.582;2023-05-02T04:17:46;101864.91;;;11.08;100.00
12987;BME280;58897;51.960;5.582;2023-05-02T04:20:13;101872.44;;;10.95;100.00
12987;BME280;58897;51.960;5.582;2023-05-02T04:22:39;101874.16;;;10.96;100.00
12987;BME280;58897;51.960;5.582;2023-05-02T04:25:06;101867.31;;;10.92;100.00
12987;BME280;58897;51.960;5.582;2023-05-02T04:27:33;101882.00;;;10.99;100.00
12987;BME280;58897;51.960;5.582;2023-05-02T04:29:59;101885.97;;;10.95;100.00
12987;BME280;58897;51.960;5.582;2023-05-02T04:32:26;101891.66;;;10.92;100.00
12987;BME280;58897;51.960;5.582;2023-05-02T04:34:53;101888.28;;;11.00;100.00
12987;BME280;58897;51.960;5.582;2023-05-02T04:37:19;101895.94;;;10.95;100.00
12987;BME280;58897;51.960;5.582;2023-05-02T04:39:46;101890.38;;;10.96;100.00
12987;BME280;58897;51.960;5.582;2023-05-02T04:42:12;101898.09;;;11.10;100.00
12987;BME280;58897;51.960;5.582;2023-05-02T04:44:39;101894.94;;;10.86;100.00
12987;BME280;58897;51.960;5.582;2023-05-02T04:47:05;101900.22;;;10.97;100.00
12987;BME280;58897;51.960;5.582;2023-05-02T04:49:32;101896.66;;;11.06;100.00
12987;BME280;58897;51.960;5.582;2023-05-02T04:51:58;101907.56;;;10.76;100.00
12987;BME280;58897;51.960;5.582;2023-05-02T04:54:25;101910.72;;;10.91;100.00
12987;BME280;58897;51.960;5.582;2023-05-02T04:56:52;101908.72;;;10.83;100.00
12987;BME280;58897;51.960;5.582;2023-05-02T04:59:18;101918.13;;;10.89;100.00
12987;BME280;58897;51.960;5.582;2023-05-02T05:01:45;101923.38;;;10.90;100.00
12987;BME280;58897;51.960;5.582;2023-05-02T05:04:11;101922.13;;;11.04;100.00
12987;BME280;58897;51.960;5.582;2023-05-02T05:06:38;101934.41;;;11.18;100.00
12987;BME280;58897;51.960;5.582;2023-05-02T05:09:05;101932.78;;;11.05;100.00
12987;BME280;58897;51.960;5.582;2023-05-02T05:11:32;101932.50;;;10.89;100.00
12987;BME280;58897;51.960;5.582;2023-05-02T05:13:58;101942.03;;;10.93;100.00
12987;BME280;58897;51.960;5.582;2023-05-02T05:16:25;101946.47;;;10.94;100.00
12987;BME280;58897;51.960;5.582;2023-05-02T05:18:52;101953.59;;;11.05;100.00
12987;BME280;58897;51.960;5.582;2023-05-02T05:21:19;101951.81;;;10.75;100.00
12987;BME280;58897;51.960;5.582;2023-05-02T05:23:46;101959.31;;;10.72;100.00
12987;BME280;58897;51.960;5.582;2023-05-02T05:26:14;101958.25;;;10.84;100.00
12987;BME280;58897;51.960;5.582;2023-05-02T05:28:42;101958.78;;;10.87;100.00
12987;BME280;58897;51.960;5.582;2023-05-02T05:31:10;101961.50;;;10.87;100.00
12987;BME280;58897;51.960;5.582;2023-05-02T05:33:39;101968.63;;;10.98;100.00
12987;BME280;58897;51.960;5.582;2023-05-02T05:36:07;101972.75;;;10.92;100.00
12987;BME280;58897;51.960;5.582;2023-05-02T05:38:34;101971.19;;;10.90;100.00
12987;BME280;58897;51.960;5.582;2023-05-02T05:41:01;101975.34;;;10.94;100.00
12987;BME280;58897;51.960;5.582;2023-05-02T05:43:28;101980.03;;;11.01;100.00
12987;BME280;58897;51.960;5.582;2023-05-02T05:45:55;101991.03;;;11.09;100.00
12987;BME280;58897;51.960;5.582;2023-05-02T05:48:22;101996.13;;;11.03;100.00
12987;BME280;58897;51.960;5.582;2023-05-02T05:50:49;101998.44;;;11.07;100.00
12987;BME280;58897;51.960;5.582;2023-05-02T05:53:17;102005.94;;;10.94;100.00
12987;BME280;58897;51.960;5.582;2023-05-02T05:55:44;102007.06;;;10.92;100.00
12987;BME280;58897;51.960;5.582;2023-05-02T05:58:11;102010.50;;;11.03;100.00
12987;BME280;58897;51.960;5.582;2023-05-02T06:00:38;102017.66;;;11.14;100.00
12987;BME280;58897;51.960;5.582;2023-05-02T06:03:05;102025.03;;;11.12;100.00
12987;BME280;58897;51.960;5.582;2023-05-02T06:05:35;102032.47;;;11.20;100.00
12987;BME280;58897;51.960;5.582;2023-05-02T06:08:02;102029.34;;;11.24;100.00
12987;BME280;58897;51.960;5.582;2023-05-02T06:10:30;102032.19;;;11.23;100.00
12987;BME280;58897;51.960;5.582;2023-05-02T06:12:56;102026.25;;;11.29;100.00
12987;BME280;58897;51.960;5.582;2023-05-02T06:15:23;102040.47;;;11.31;100.00
12987;BME280;58897;51.960;5.582;2023-05-02T06:17:50;102040.03;;;11.35;100.00
12987;BME280;58897;51.960;5.582;2023-05-02T06:20:17;102049.06;;;11.05;100.00
12987;BME280;58897;51.960;5.582;2023-05-02T06:22:44;102044.91;;;10.92;100.00
12987;BME280;58897;51.960;5.582;2023-05-02T06:25:10;102047.94;;;11.08;100.00
12987;BME280;58897;51.960;5.582;2023-05-02T06:27:37;102057.31;;;11.04;100.00
12987;BME280;58897;51.960;5.582;2023-05-02T06:30:04;102063.31;;;11.07;100.00
12987;BME280;58897;51.960;5.582;2023-05-02T06:32:31;102067.47;;;11.21;100.00
12987;BME280;58897;51.960;5.582;2023-05-02T06:34:58;102072.50;;;11.26;100.00
12987;BME280;58897;51.960;5.582;2023-05-02T06:37:24;102080.91;;;11.32;100.00
12987;BME280;58897;51.960;5.582;2023-05-02T06:39:51;102081.75;;;11.23;100.00
12987;BME280;58897;51.960;5.582;2023-05-02T06:42:17;102091.09;;;11.19;100.00
12987;BME280;58897;51.960;5.582;2023-05-02T06:44:44;102100.16;;;11.39;100.00
12987;BME280;58897;51.960;5.582;2023-05-02T06:47:10;102096.00;;;11.35;100.00
12987;BME280;58897;51.960;5.582;2023-05-02T06:49:37;102105.16;;;11.43;100.00
12987;BME280;58897;51.960;5.582;2023-05-02T06:52:04;102113.69;;;11.39;100.00
12987;BME280;58897;51.960;5.582;2023-05-02T06:54:30;102107.16;;;11.51;100.00
12987;BME280;58897;51.960;5.582;2023-05-02T06:56:56;102110.06;;;11.68;100.00
12987;BME280;58897;51.960;5.582;2023-05-02T06:59:24;102118.34;;;11.76;100.00
12987;BME280;58897;51.960;5.582;2023-05-02T07:01:51;102116.34;;;11.78;100.00
12987;BME280;58897;51.960;5.582;2023-05-02T07:04:17;102124.34;;;11.90;100.00
12987;BME280;58897;51.960;5.582;2023-05-02T07:06:45;102130.31;;;11.74;100.00
12987;BME280;58897;51.960;5.582;2023-05-02T07:09:12;102131.50;;;12.19;100.00
12987;BME280;58897;51.960;5.582;2023-05-02T07:11:38;102130.50;;;12.11;100.00
12987;BME280;58897;51.960;5.582;2023-05-02T07:14:05;102129.47;;;12.50;100.00
12987;BME280;58897;51.960;5.582;2023-05-02T07:16:31;102133.91;;;12.51;100.00
12987;BME280;58897;51.960;5.582;2023-05-02T07:18:58;102138.44;;;12.60;100.00
12987;BME280;58897;51.960;5.582;2023-05-02T07:21:25;102142.16;;;12.50;100.00
12987;BME280;58897;51.960;5.582;2023-05-02T07:23:51;102148.28;;;11.85;100.00
12987;BME280;58897;51.960;5.582;2023-05-02T07:26:20;102150.75;;;12.16;100.00
12987;BME280;58897;51.960;5.582;2023-05-02T07:28:48;102149.47;;;12.11;100.00
12987;BME280;58897;51.960;5.582;2023-05-02T07:31:15;102154.03;;;12.29;100.00
12987;BME280;58897;51.960;5.582;2023-05-02T07:33:44;102156.16;;;12.16;100.00
12987;BME280;58897;51.960;5.582;2023-05-02T07:36:10;102151.91;;;12.33;100.00
12987;BME280;58897;51.960;5.582;2023-05-02T07:38:37;102162.28;;;12.57;100.00
12987;BME280;58897;51.960;5.582;2023-05-02T07:41:03;102147.88;;;12.08;100.00
12987;BME280;58897;51.960;5.582;2023-05-02T07:43:30;102159.44;;;12.10;100.00
12987;BME280;58897;51.960;5.582;2023-05-02T07:45:56;102163.81;;;11.92;100.00
12987;BME280;58897;51.960;5.582;2023-05-02T07:48:23;102170.09;;;11.53;100.00
12987;BME280;58897;51.960;5.582;2023-05-02T07:50:52;102177.31;;;11.33;100.00
12987;BME280;58897;51.960;5.582;2023-05-02T07:53:19;102176.63;;;11.41;100.00
12987;BME280;58897;51.960;5.582;2023-05-02T07:55:45;102187.81;;;11.27;100.00
12987;BME280;58897;51.960;5.582;2023-05-02T07:58:12;102178.09;;;11.24;100.00
12987;BME280;58897;51.960;5.582;2023-05-02T08:00:39;102188.75;;;11.46;100.00
12987;BME280;58897;51.960;5.582;2023-05-02T08:03:05;102186.22;;;11.54;100.00
12987;BME280;58897;51.960;5.582;2023-05-02T08:05:33;102197.81;;;11.36;100.00
12987;BME280;58897;51.960;5.582;2023-05-02T08:07:59;102193.34;;;12.05;100.00
12987;BME280;58897;51.960;5.582;2023-05-02T08:10:27;102201.31;;;11.97;100.00
12987;BME280;58897;51.960;5.582;2023-05-02T08:12:53;102201.53;;;12.43;100.00
12987;BME280;58897;51.960;5.582;2023-05-02T08:15:20;102207.47;;;12.94;100.00
12987;BME280;58897;51.960;5.582;2023-05-02T08:17:46;102215.31;;;12.97;100.00
12987;BME280;58897;51.960;5.582;2023-05-02T08:20:13;102214.41;;;13.63;100.00
12987;BME280;58897;51.960;5.582;2023-05-02T08:22:39;102214.19;;;13.46;100.00
12987;BME280;58897;51.960;5.582;2023-05-02T08:25:06;102218.13;;;13.34;100.00
12987;BME280;58897;51.960;5.582;2023-05-02T08:27:33;102221.59;;;13.54;100.00
12987;BME280;58897;51.960;5.582;2023-05-02T08:30:00;102222.88;;;14.32;100.00
12987;BME280;58897;51.960;5.582;2023-05-02T08:32:27;102214.22;;;14.46;100.00
12987;BME280;58897;51.960;5.582;2023-05-02T08:34:55;102219.94;;;14.60;100.00
12987;BME280;58897;51.960;5.582;2023-05-02T08:37:24;102214.34;;;14.62;100.00
12987;BME280;58897;51.960;5.582;2023-05-02T08:39:51;102229.50;;;15.08;100.00
12987;BME280;58897;51.960;5.582;2023-05-02T08:42:18;102224.44;;;14.69;100.00
12987;BME280;58897;51.960;5.582;2023-05-02T08:44:47;102232.47;;;14.26;100.00
12987;BME280;58897;51.960;5.582;2023-05-02T08:47:14;102230.50;;;15.50;100.00
12987;BME280;58897;51.960;5.582;2023-05-02T08:49:41;102239.47;;;15.17;98.72
12987;BME280;58897;51.960;5.582;2023-05-02T08:52:08;102229.03;;;15.12;100.00
12987;BME280;58897;51.960;5.582;2023-05-02T08:54:37;102245.63;;;14.83;100.00
12987;BME280;58897;51.960;5.582;2023-05-02T08:57:04;102244.50;;;14.33;100.00
12987;BME280;58897;51.960;5.582;2023-05-02T08:59:31;102257.88;;;13.90;100.00
12987;BME280;58897;51.960;5.582;2023-05-02T09:02:08;102252.66;;;13.42;100.00
12987;BME280;58897;51.960;5.582;2023-05-02T09:04:40;102255.47;;;13.87;100.00
12987;BME280;58897;51.960;5.582;2023-05-02T09:07:07;102257.47;;;13.48;100.00
12987;BME280;58897;51.960;5.582;2023-05-02T09:09:36;102263.91;;;13.47;100.00
12987;BME280;58897;51.960;5.582;2023-05-02T09:12:03;102268.91;;;13.51;100.00
12987;BME280;58897;51.960;5.582;2023-05-02T09:14:29;102280.47;;;13.90;100.00
12987;BME280;58897;51.960;5.582;2023-05-02T09:16:58;102270.81;;;14.50;100.00
12987;BME280;58897;51.960;5.582;2023-05-02T09:19:26;102274.09;;;14.71;98.81
12987;BME280;58897;51.960;5.582;2023-05-02T09:21:59;102261.59;;;14.61;93.76
12987;BME280;58897;51.960;5.582;2023-05-02T09:24:26;102275.09;;;14.35;92.33
12987;BME280;58897;51.960;5.582;2023-05-02T09:29:23;102281.50;;;13.80;95.67
12987;BME280;58897;51.960;5.582;2023-05-02T09:31:50;102294.16;;;13.98;95.71
12987;BME280;58897;51.960;5.582;2023-05-02T09:34:22;102294.72;;;14.02;95.44
12987;BME280;58897;51.960;5.582;2023-05-02T09:36:50;102291.19;;;13.92;92.13
12987;BME280;58897;51.960;5.582;2023-05-02T09:41:51;102294.78;;;14.47;89.27
12987;BME280;58897;51.960;5.582;2023-05-02T09:44:20;102294.34;;;14.42;91.18
12987;BME280;58897;51.960;5.582;2023-05-02T09:46:49;102294.41;;;15.20;85.48
12987;BME280;58897;51.960;5.582;2023-05-02T09:49:17;102291.00;;;15.18;77.89
12987;BME280;58897;51.960;5.582;2023-05-02T09:51:45;102293.53;;;15.37;83.03
12987;BME280;58897;51.960;5.582;2023-05-02T09:54:34;102292.25;;;15.24;79.68
12987;BME280;58897;51.960;5.582;2023-05-02T09:57:01;102297.56;;;15.33;76.20
12987;BME280;58897;51.960;5.582;2023-05-02T09:59:28;102308.00;;;15.38;74.93
12987;BME280;58897;51.960;5.582;2023-05-02T10:02:01;102308.78;;;15.48;79.15
12987;BME280;58897;51.960;5.582;2023-05-02T10:04:30;102307.84;;;16.33;72.14
12987;BME280;58897;51.960;5.582;2023-05-02T10:06:58;102303.97;;;16.01;70.82
12987;BME280;58897;51.960;5.582;2023-05-02T10:09:26;102305.78;;;15.85;70.16
12987;BME280;58897;51.960;5.582;2023-05-02T10:12:01;102299.84;;;15.89;72.67
12987;BME280;58897;51.960;5.582;2023-05-02T10:14:36;102300.91;;;15.45;74.11
12987;BME280;58897;51.960;5.582;2023-05-02T10:17:11;102296.72;;;15.76;69.87
12987;BME280;58897;51.960;5.582;2023-05-02T10:22:18;102312.78;;;15.62;75.63
12987;BME280;58897;51.960;5.582;2023-05-02T10:24:47;102311.00;;;15.78;73.64
12987;BME280;58897;51.960;5.582;2023-05-02T10:27:15;102316.84;;;15.83;71.09
12987;BME280;58897;51.960;5.582;2023-05-02T10:29:41;102315.41;;;15.28;64.12
12987;BME280;58897;51.960;5.582;2023-05-02T10:32:09;102320.22;;;16.19;68.70
12987;BME280;58897;51.960;5.582;2023-05-02T10:34:37;102311.31;;;16.51;61.31
12987;BME280;58897;51.960;5.582;2023-05-02T10:37:05;102311.06;;;17.51;55.96
12987;BME280;58897;51.960;5.582;2023-05-02T10:39:32;102309.38;;;17.01;64.45
12987;BME280;58897;51.960;5.582;2023-05-02T10:42:00;102313.84;;;17.02;62.09
12987;BME280;58897;51.960;5.582;2023-05-02T10:44:36;102319.81;;;17.54;62.82
12987;BME280;58897;51.960;5.582;2023-05-02T10:47:22;102320.97;;;17.03;57.92
12987;BME280;58897;51.960;5.582;2023-05-02T10:50:00;102307.59;;;18.89;52.78
12987;BME280;58897;51.960;5.582;2023-05-02T10:52:34;102313.53;;;18.39;51.10
12987;BME280;58897;51.960;5.582;2023-05-02T10:55:22;102322.00;;;17.26;54.16
12987;BME280;58897;51.960;5.582;2023-05-02T11:00:34;102315.56;;;18.54;48.98
12987;BME280;58897;51.960;5.582;2023-05-02T11:03:01;102301.88;;;19.73;45.88
12987;BME280;58897;51.960;5.582;2023-05-02T11:05:28;102311.94;;;19.81;44.47
12987;BME280;58897;51.960;5.582;2023-05-02T11:10:40;102314.91;;;18.74;42.72
12987;BME280;58897;51.960;5.582;2023-05-02T11:13:06;102323.38;;;18.87;45.59
12987;BME280;58897;51.960;5.582;2023-05-02T11:18:07;102328.47;;;17.42;50.72
12987;BME280;58897;51.960;5.582;2023-05-02T11:20:35;102331.38;;;17.72;51.36
12987;BME280;58897;51.960;5.582;2023-05-02T11:26:19;102327.81;;;17.64;54.04
12987;BME280;58897;51.960;5.582;2023-05-02T11:28:47;102319.28;;;19.81;49.84
12987;BME280;58897;51.960;5.582;2023-05-02T11:33:56;102322.13;;;21.24;40.60
12987;BME280;58897;51.960;5.582;2023-05-02T11:36:30;102324.75;;;22.22;40.39
12987;BME280;58897;51.960;5.582;2023-05-02T11:39:00;102324.03;;;20.30;39.34
12987;BME280;58897;51.960;5.582;2023-05-02T11:41:42;102318.59;;;20.87;37.43
12987;BME280;58897;51.960;5.582;2023-05-02T11:44:09;102315.72;;;20.96;40.53
12987;BME280;58897;51.960;5.582;2023-05-02T11:46:36;102317.50;;;20.88;38.19
12987;BME280;58897;51.960;5.582;2023-05-02T11:49:04;102313.75;;;21.32;37.80
12987;BME280;58897;51.960;5.582;2023-05-02T11:51:34;102321.47;;;21.01;37.50
12987;BME280;58897;51.960;5.582;2023-05-02T11:54:00;102323.94;;;20.60;37.25
12987;BME280;58897;51.960;5.582;2023-05-02T11:56:27;102325.53;;;21.26;40.19
12987;BME280;58897;51.960;5.582;2023-05-02T11:59:01;102323.44;;;21.28;36.56
12987;BME280;58897;51.960;5.582;2023-05-02T12:01:29;102309.44;;;21.23;37.42
12987;BME280;58897;51.960;5.582;2023-05-02T12:04:03;102329.91;;;20.27;39.98
12987;BME280;58897;51.960;5.582;2023-05-02T12:06:30;102328.03;;;20.64;41.96
12987;BME280;58897;51.960;5.582;2023-05-02T12:09:13;102325.66;;;20.61;40.19
12987;BME280;58897;51.960;5.582;2023-05-02T12:11:41;102342.56;;;20.79;40.10
12987;BME280;58897;51.960;5.582;2023-05-02T12:14:08;102340.22;;;21.61;38.78
12987;BME280;58897;51.960;5.582;2023-05-02T12:16:35;102345.19;;;20.22;40.39
12987;BME280;58897;51.960;5.582;2023-05-02T12:19:02;102344.25;;;21.16;37.76
12987;BME280;58897;51.960;5.582;2023-05-02T12:21:29;102342.00;;;21.05;37.80
12987;BME280;58897;51.960;5.582;2023-05-02T12:23:59;102354.34;;;21.09;38.89
12987;BME280;58897;51.960;5.582;2023-05-02T12:26:27;102351.66;;;20.79;39.79
12987;BME280;58897;51.960;5.582;2023-05-02T12:28:58;102351.00;;;21.13;38.43
12987;BME280;58897;51.960;5.582;2023-05-02T12:31:26;102364.41;;;20.87;37.32
12987;BME280;58897;51.960;5.582;2023-05-02T12:33:55;102361.09;;;21.27;35.99
12987;BME280;58897;51.960;5.582;2023-05-02T12:36:23;102366.25;;;21.16;36.92
12987;BME280;58897;51.960;5.582;2023-05-02T12:38:55;102364.47;;;20.72;37.07
12987;BME280;58897;51.960;5.582;2023-05-02T12:41:34;102366.41;;;20.43;37.18
12987;BME280;58897;51.960;5.582;2023-05-02T12:44:01;102364.97;;;20.61;39.54
12987;BME280;58897;51.960;5.582;2023-05-02T12:46:28;102359.25;;;20.77;39.66
12987;BME280;58897;51.960;5.582;2023-05-02T12:49:01;102366.00;;;20.60;38.51
12987;BME280;58897;51.960;5.582;2023-05-02T12:51:28;102365.88;;;20.83;39.35
12987;BME280;58897;51.960;5.582;2023-05-02T12:53:56;102366.63;;;20.41;41.18
12987;BME280;58897;51.960;5.582;2023-05-02T12:56:23;102367.16;;;20.51;41.23
12987;BME280;58897;51.960;5.582;2023-05-02T12:58:49;102381.22;;;20.77;41.97
12987;BME280;58897;51.960;5.582;2023-05-02T13:01:16;102379.22;;;20.71;39.60
12987;BME280;58897;51.960;5.582;2023-05-02T13:03:43;102383.69;;;20.72;39.53
12987;BME280;58897;51.960;5.582;2023-05-02T13:06:09;102382.47;;;21.11;40.82
12987;BME280;58897;51.960;5.582;2023-05-02T13:08:36;102382.88;;;20.93;39.55
12987;BME280;58897;51.960;5.582;2023-05-02T13:11:03;102392.53;;;20.39;42.33
12987;BME280;58897;51.960;5.582;2023-05-02T13:13:30;102382.53;;;19.79;41.17
12987;BME280;58897;51.960;5.582;2023-05-02T13:15:57;102393.75;;;19.24;41.87
12987;BME280;58897;51.960;5.582;2023-05-02T13:18:24;102391.16;;;19.76;45.73
12987;BME280;58897;51.960;5.582;2023-05-02T13:20:51;102387.34;;;19.77;43.56